createdAt,value
2023-05-25T15:38:16.166Z,26.62
2023-05-25T15:39:16.053Z,26.60
2023-05-25T15:40:15.985Z,26.60
2023-05-25T15:41:15.911Z,26.42
2023-05-25T15:42:15.849Z,26.30
2023-05-25T15:43:15.783Z,26.16
2023-05-25T15:44:15.707Z,26.20
2023-05-25T15:45:15.639Z,26.20
2023-05-25T15:46:15.617Z,26.15
2023-05-25T15:47:15.500Z,26.18
2023-05-25T15:48:15.431Z,26.27
2023-05-25T15:49:15.358Z,26.31
2023-05-25T15:50:15.295Z,26.18
2023-05-25T15:51:15.213Z,26.18
2023-05-25T15:52:15.148Z,26.12
2023-05-25T15:53:15.092Z,26.12
2023-05-25T15:54:15.214Z,26.16
2023-05-25T15:55:14.941Z,26.23
2023-05-25T15:56:14.881Z,26.28
2023-05-25T15:57:14.793Z,26.38
2023-05-25T15:58:14.733Z,26.18
2023-05-25T15:59:14.672Z,26.08
2023-05-25T16:00:14.585Z,26.04
2023-05-25T16:01:14.532Z,26.04
2023-05-25T16:02:14.496Z,26.08
2023-05-25T16:03:14.378Z,26.05
2023-05-25T16:04:14.414Z,26.11
2023-05-25T16:05:14.243Z,26.01
2023-05-25T16:06:14.171Z,25.90
2023-05-25T16:07:14.110Z,25.89
2023-05-25T16:08:14.089Z,25.84
2023-05-25T16:09:13.957Z,25.84
2023-05-25T16:10:13.891Z,25.75
2023-05-25T16:11:13.841Z,25.70
2023-05-25T16:12:13.746Z,25.71
2023-05-25T16:13:13.672Z,25.68
2023-05-25T16:14:13.627Z,25.70
2023-05-25T16:15:13.534Z,25.70
2023-05-25T16:16:13.486Z,25.70
2023-05-25T16:17:14.394Z,25.84
2023-05-25T16:18:13.336Z,25.86
2023-05-25T16:19:14.202Z,25.78
2023-05-25T16:20:13.300Z,25.72
2023-05-25T16:21:13.123Z,25.55
2023-05-25T16:22:13.046Z,25.42
2023-05-25T16:23:12.975Z,25.31
2023-05-25T16:24:12.921Z,25.13
2023-05-25T16:25:12.832Z,25.09
2023-05-25T16:26:12.767Z,24.93
2023-05-25T16:27:12.728Z,24.85
2023-05-25T16:28:12.624Z,24.80
2023-05-25T16:29:12.556Z,24.79
2023-05-25T16:30:13.347Z,24.91
2023-05-25T16:31:12.412Z,24.95
2023-05-25T16:32:12.426Z,25.05
2023-05-25T16:33:12.351Z,25.04
2023-05-25T16:34:12.197Z,25.13
2023-05-25T16:35:12.130Z,25.04
2023-05-25T16:36:12.060Z,25.13
2023-05-25T16:37:11.995Z,25.13
2023-05-25T16:38:11.920Z,25.19
2023-05-25T16:39:11.850Z,25.12
2023-05-25T16:40:11.782Z,25.27
2023-05-25T16:41:11.703Z,25.32
2023-05-25T16:42:11.640Z,25.25
2023-05-25T16:43:11.564Z,25.35
2023-05-25T16:44:11.536Z,25.25
2023-05-25T16:45:11.425Z,25.30
2023-05-25T16:46:11.377Z,25.28
2023-05-25T16:47:11.282Z,25.35
2023-05-25T16:48:11.260Z,25.41
2023-05-25T16:49:11.135Z,25.30
2023-05-25T16:50:11.073Z,25.30
2023-05-25T16:51:10.998Z,25.27
2023-05-25T16:52:10.924Z,25.19
2023-05-25T16:53:10.857Z,25.20
2023-05-25T16:54:10.789Z,25.22
2023-05-25T16:55:10.710Z,25.22
2023-05-25T16:56:10.645Z,25.12
2023-05-25T16:57:10.569Z,25.19
2023-05-25T16:58:10.505Z,25.20
2023-05-25T16:59:10.429Z,25.12
2023-05-25T17:00:10.362Z,25.02
2023-05-25T17:01:10.310Z,25.17
2023-05-25T17:02:10.238Z,25.10
2023-05-25T17:03:10.239Z,25.13
2023-05-25T17:04:10.131Z,25.22
2023-05-25T17:05:10.026Z,25.19
2023-05-25T17:06:09.939Z,25.28
2023-05-25T17:07:09.866Z,25.20
2023-05-25T17:08:09.795Z,25.22
2023-05-25T17:09:09.726Z,25.25
2023-05-25T17:10:09.671Z,25.13
2023-05-25T17:11:09.594Z,25.20
2023-05-25T17:12:09.507Z,25.16
2023-05-25T17:13:09.435Z,25.20
2023-05-25T17:14:09.379Z,25.28
2023-05-25T17:15:09.290Z,25.27
2023-05-25T17:16:09.251Z,25.15
2023-05-25T17:17:09.159Z,25.10
2023-05-25T17:18:09.111Z,25.04
2023-05-25T17:19:09.012Z,25.04
2023-05-25T17:20:09.009Z,24.97
2023-05-25T17:21:08.870Z,24.90
2023-05-25T17:22:08.802Z,24.90
2023-05-25T17:23:08.727Z,24.78
2023-05-25T17:24:08.659Z,24.80
2023-05-25T17:25:08.580Z,24.63
2023-05-25T17:26:08.512Z,24.69
2023-05-25T17:27:08.446Z,24.60
2023-05-25T17:28:08.373Z,24.75
2023-05-25T17:29:08.300Z,24.73
2023-05-25T17:30:08.227Z,24.59
2023-05-25T17:31:09.224Z,24.53
2023-05-25T17:32:08.105Z,24.52
2023-05-25T17:33:08.050Z,24.57
2023-05-25T17:34:07.939Z,24.59
2023-05-25T17:35:07.871Z,24.45
2023-05-25T17:36:07.800Z,24.52
2023-05-25T17:37:07.732Z,24.48
2023-05-25T17:38:07.663Z,24.44
2023-05-25T17:39:07.589Z,24.45
2023-05-25T17:40:07.514Z,24.42
2023-05-25T17:41:07.684Z,24.23
2023-05-25T17:42:07.388Z,24.20
2023-05-25T17:43:07.297Z,24.20
2023-05-25T17:44:07.231Z,24.23
2023-05-25T17:45:07.158Z,24.10
2023-05-25T17:46:07.217Z,24.07
2023-05-25T17:47:08.399Z,24.01
2023-05-25T17:48:07.019Z,23.98
2023-05-25T17:49:06.872Z,23.95
2023-05-25T17:50:06.799Z,23.86
2023-05-25T17:51:07.083Z,23.82
2023-05-25T17:52:06.659Z,23.79
2023-05-25T17:53:06.581Z,23.71
2023-05-25T17:54:06.521Z,23.53
2023-05-25T17:55:06.440Z,23.52
2023-05-25T17:56:06.368Z,23.50
2023-05-25T17:57:06.661Z,23.53
2023-05-25T17:58:06.225Z,23.42
2023-05-25T17:59:06.148Z,23.37
2023-05-25T18:00:06.078Z,23.33
2023-05-25T18:01:06.059Z,23.31
2023-05-25T18:02:06.248Z,23.33
2023-05-25T18:03:06.046Z,23.17
2023-05-25T18:04:06.022Z,23.22
2023-05-25T18:05:05.771Z,23.15
2023-05-25T18:06:05.642Z,23.18
2023-05-25T18:07:05.578Z,23.15
2023-05-25T18:08:05.535Z,23.04
2023-05-25T18:09:05.436Z,23.04
2023-05-25T18:10:05.402Z,23.04
2023-05-25T18:11:05.562Z,22.90
2023-05-25T18:12:05.211Z,22.84
2023-05-25T18:13:05.133Z,22.90
2023-05-25T18:14:05.075Z,22.81
2023-05-25T18:15:04.995Z,22.87
2023-05-25T18:16:04.925Z,22.86
2023-05-25T18:17:05.109Z,22.89
2023-05-25T18:18:04.837Z,22.81
2023-05-25T18:19:04.702Z,22.84
2023-05-25T18:20:04.681Z,22.60
2023-05-25T18:21:04.663Z,22.59
2023-05-25T18:22:04.615Z,22.63
2023-05-25T18:23:04.420Z,22.69
2023-05-25T18:24:04.338Z,22.69
2023-05-25T18:25:04.272Z,22.56
2023-05-25T18:26:04.197Z,22.54
2023-05-25T18:27:04.180Z,22.65
2023-05-25T18:28:04.046Z,22.54
2023-05-25T18:29:03.999Z,22.50
2023-05-25T18:30:03.921Z,22.57
2023-05-25T18:31:03.920Z,22.37
2023-05-25T18:32:03.769Z,22.35
2023-05-25T18:33:03.716Z,22.30
2023-05-25T18:34:03.620Z,22.32
2023-05-25T18:35:03.534Z,22.20
2023-05-25T18:36:03.467Z,22.24
2023-05-25T18:37:03.661Z,22.23
2023-05-25T18:38:03.464Z,22.22
2023-05-25T18:39:03.251Z,22.17
2023-05-25T18:40:03.205Z,22.04
2023-05-25T18:41:03.105Z,22.10
2023-05-25T18:42:03.063Z,22.02
2023-05-25T18:43:03.015Z,22.08
2023-05-25T18:44:02.889Z,21.86
2023-05-25T18:45:02.802Z,21.85
2023-05-25T18:46:02.785Z,21.82
2023-05-25T18:47:02.655Z,21.81
2023-05-25T18:48:02.625Z,21.81
2023-05-25T18:49:02.514Z,21.78
2023-05-25T18:50:02.440Z,21.82
2023-05-25T18:51:02.363Z,21.66
2023-05-25T18:52:02.299Z,21.56
2023-05-25T18:53:02.220Z,21.61
2023-05-25T18:54:02.147Z,21.54
2023-05-25T18:55:02.078Z,21.54
2023-05-25T18:56:02.027Z,21.42
2023-05-25T18:57:01.936Z,21.31
2023-05-25T18:58:01.846Z,21.33
2023-05-25T18:59:01.774Z,21.35
2023-05-25T19:00:01.710Z,21.33
2023-05-25T19:01:01.627Z,21.38
2023-05-25T19:02:01.634Z,21.33
2023-05-25T19:03:01.631Z,21.29
2023-05-25T19:04:01.531Z,21.33
2023-05-25T19:05:01.343Z,21.14
2023-05-25T19:06:01.262Z,21.16
2023-05-25T19:07:01.189Z,21.17
2023-05-25T19:08:01.128Z,21.11
2023-05-25T19:09:01.040Z,21.17
2023-05-25T19:10:00.990Z,21.11
2023-05-25T19:11:00.892Z,21.04
2023-05-25T19:12:00.816Z,20.93
2023-05-25T19:13:00.746Z,20.94
2023-05-25T19:14:00.664Z,20.90
2023-05-25T19:15:00.612Z,20.87
2023-05-25T19:16:00.551Z,20.75
2023-05-25T19:17:00.522Z,20.75
2023-05-25T19:18:00.395Z,20.76
2023-05-25T19:19:00.305Z,20.64
2023-05-25T19:20:00.289Z,20.66
2023-05-25T19:21:00.144Z,20.66
2023-05-25T19:22:00.128Z,20.72
2023-05-25T19:23:00.012Z,20.54
2023-05-25T19:23:59.930Z,20.54
2023-05-25T19:25:01.095Z,20.62
2023-05-25T19:25:59.792Z,20.51
2023-05-25T19:26:59.705Z,20.46
2023-05-25T19:27:59.641Z,20.56
2023-05-25T19:28:59.560Z,20.46
2023-05-25T19:29:59.478Z,20.42
2023-05-25T19:30:59.406Z,20.38
2023-05-25T19:31:59.389Z,20.27
2023-05-25T19:32:59.268Z,20.10
2023-05-25T19:33:59.185Z,20.16
2023-05-25T19:34:59.112Z,20.03
2023-05-25T19:35:59.045Z,20.05
2023-05-25T19:37:07.578Z,20.00
2023-05-25T19:38:01.185Z,20.05
2023-05-25T19:38:58.813Z,20.05
2023-05-25T19:39:58.741Z,20.03
2023-05-25T19:40:58.669Z,19.90
2023-05-25T19:41:58.589Z,20.00
2023-05-25T19:42:58.516Z,19.91
2023-05-25T19:43:58.448Z,20.01
2023-05-25T19:44:58.362Z,20.00
2023-05-25T19:45:58.308Z,20.01
2023-05-25T19:46:58.223Z,20.01
2023-05-25T19:47:58.194Z,19.98
2023-05-25T19:48:58.069Z,19.94
2023-05-25T19:49:57.999Z,20.00
2023-05-25T19:50:57.918Z,19.91
2023-05-25T19:51:57.846Z,19.88
2023-05-25T19:52:57.769Z,19.87
2023-05-25T19:53:57.692Z,19.82
2023-05-25T19:54:57.620Z,19.78
2023-05-25T19:55:57.542Z,19.72
2023-05-25T19:56:57.482Z,19.63
2023-05-25T19:57:57.389Z,19.58
2023-05-25T19:58:57.321Z,19.45
2023-05-25T19:59:57.246Z,19.45
2023-05-25T20:00:57.239Z,19.35
2023-05-25T20:01:57.093Z,19.28
2023-05-25T20:02:57.140Z,19.27
2023-05-25T20:03:56.958Z,19.27
2023-05-25T20:04:56.892Z,19.20
2023-05-25T20:05:56.802Z,19.23
2023-05-25T20:06:56.719Z,19.15
2023-05-25T20:07:56.641Z,19.23
2023-05-25T20:08:56.576Z,19.13
2023-05-25T20:09:56.496Z,19.13
2023-05-25T20:10:56.431Z,19.21
2023-05-25T20:11:56.349Z,19.17
2023-05-25T20:12:56.269Z,19.11
2023-05-25T20:13:56.194Z,19.05
2023-05-25T20:14:56.120Z,19.05
2023-05-25T20:15:56.064Z,19.08
2023-05-25T20:16:56.203Z,18.97
2023-05-25T20:17:55.975Z,19.01
2023-05-25T20:18:55.811Z,18.98
2023-05-25T20:19:55.789Z,18.98
2023-05-25T20:20:55.667Z,18.92
2023-05-25T20:21:55.591Z,19.02
2023-05-25T20:22:55.522Z,18.97
2023-05-25T20:23:55.442Z,18.94
2023-05-25T20:24:55.361Z,18.92
2023-05-25T20:25:55.291Z,18.77
2023-05-25T20:26:55.214Z,18.86
2023-05-25T20:27:55.139Z,18.84
2023-05-25T20:28:55.061Z,18.79
2023-05-25T20:29:54.998Z,18.73
2023-05-25T20:30:54.911Z,18.68
2023-05-25T20:31:54.868Z,18.76
2023-05-25T20:32:54.810Z,18.58
2023-05-25T20:33:54.688Z,18.53
2023-05-25T20:34:54.611Z,18.64
2023-05-25T20:35:54.531Z,18.58
2023-05-25T20:36:54.456Z,18.62
2023-05-25T20:37:54.383Z,18.58
2023-05-25T20:38:54.310Z,18.44
2023-05-25T20:39:54.242Z,18.46
2023-05-25T20:40:54.150Z,18.37
2023-05-25T20:41:54.086Z,18.40
2023-05-25T20:42:54.005Z,18.35
2023-05-25T20:43:53.929Z,18.40
2023-05-25T20:44:53.861Z,18.35
2023-05-25T20:45:53.793Z,18.32
2023-05-25T20:46:53.712Z,18.32
2023-05-25T20:47:53.648Z,18.22
2023-05-25T20:48:53.664Z,18.16
2023-05-25T20:49:53.477Z,18.19
2023-05-25T20:50:53.409Z,18.16
2023-05-25T20:51:53.333Z,18.13
2023-05-25T20:52:53.267Z,18.10
2023-05-25T20:53:53.167Z,18.09
2023-05-25T20:54:53.106Z,18.16
2023-05-25T20:55:53.026Z,18.04
2023-05-25T20:56:52.952Z,18.18
2023-05-25T20:57:52.883Z,18.11
2023-05-25T20:58:52.794Z,17.98
2023-05-25T20:59:52.731Z,18.13
2023-05-25T21:00:52.650Z,18.06
2023-05-25T21:01:52.620Z,18.07
2023-05-25T21:02:52.552Z,18.09
2023-05-25T21:03:52.462Z,17.95
2023-05-25T21:04:52.341Z,17.95
2023-05-25T21:05:52.266Z,18.07
2023-05-25T21:06:52.195Z,17.87
2023-05-25T21:07:52.120Z,17.94
2023-05-25T21:08:52.041Z,17.91
2023-05-25T21:09:51.959Z,17.88
2023-05-25T21:10:51.898Z,17.87
2023-05-25T21:11:51.809Z,17.91
2023-05-25T21:12:51.740Z,17.94
2023-05-25T21:13:51.667Z,17.84
2023-05-25T21:14:51.592Z,17.76
2023-05-25T21:15:51.543Z,17.79
2023-05-25T21:16:51.433Z,17.60
2023-05-25T21:17:51.423Z,17.66
2023-05-25T21:18:51.281Z,17.71
2023-05-25T21:19:51.199Z,17.53
2023-05-25T21:20:51.121Z,17.53
2023-05-25T21:21:51.044Z,17.44
2023-05-25T21:22:50.971Z,17.32
2023-05-25T21:23:50.891Z,17.35
2023-05-25T21:24:50.823Z,17.26
2023-05-25T21:25:50.752Z,17.26
2023-05-25T21:26:50.678Z,17.02
2023-05-25T21:27:50.592Z,17.00
2023-05-25T21:28:50.515Z,16.98
2023-05-25T21:29:50.442Z,16.92
2023-05-25T21:30:50.369Z,16.92
2023-05-25T21:31:50.315Z,16.81
2023-05-25T21:32:50.271Z,16.80
2023-05-25T21:33:50.132Z,16.92
2023-05-25T21:34:50.077Z,16.96
2023-05-25T21:35:49.972Z,16.82
2023-05-25T21:36:49.910Z,16.88
2023-05-25T21:37:49.829Z,16.88
2023-05-25T21:38:49.744Z,16.88
2023-05-25T21:39:49.677Z,16.75
2023-05-25T21:40:49.604Z,16.71
2023-05-25T21:41:49.522Z,16.71
2023-05-25T21:42:51.252Z,16.74
2023-05-25T21:43:49.366Z,16.71
2023-05-25T21:44:49.284Z,16.57
2023-05-25T21:45:49.215Z,16.57
2023-05-25T21:46:49.148Z,16.56
2023-05-25T21:47:49.176Z,16.56
2023-05-25T21:48:48.982Z,16.53
2023-05-25T21:49:48.903Z,16.45
2023-05-25T21:50:48.832Z,16.38
2023-05-25T21:51:48.750Z,16.40
2023-05-25T21:52:48.671Z,16.41
2023-05-25T21:53:48.593Z,16.37
2023-05-25T21:54:48.515Z,16.29
2023-05-25T21:55:48.445Z,16.12
2023-05-25T21:56:48.372Z,16.14
2023-05-25T21:57:48.284Z,15.89
2023-05-25T21:58:48.207Z,15.79
2023-05-25T21:59:48.140Z,15.71
2023-05-25T22:00:48.101Z,15.59
2023-05-25T22:01:47.986Z,15.63
2023-05-25T22:02:47.935Z,15.66
2023-05-25T22:03:47.826Z,15.63
2023-05-25T22:04:47.750Z,15.61
2023-05-25T22:05:47.675Z,15.61
2023-05-25T22:06:47.600Z,15.66
2023-05-25T22:07:47.515Z,15.55
2023-05-25T22:08:47.437Z,15.57
2023-05-25T22:09:47.359Z,15.57
2023-05-25T22:10:47.284Z,15.53
2023-05-25T22:11:47.209Z,15.52
2023-05-25T22:12:47.145Z,15.57
2023-05-25T22:13:47.050Z,15.55
2023-05-25T22:14:46.978Z,15.53
2023-05-25T22:15:47.094Z,15.55
2023-05-25T22:16:46.854Z,15.52
2023-05-25T22:17:46.779Z,15.55
2023-05-25T22:18:46.670Z,15.55
2023-05-25T22:19:52.154Z,15.46
2023-05-25T22:20:46.540Z,15.53
2023-05-25T22:21:46.440Z,15.46
2023-05-25T22:22:46.354Z,15.48
2023-05-25T22:23:46.293Z,15.48
2023-05-25T22:24:46.203Z,15.48
2023-05-25T22:25:46.280Z,15.51
2023-05-25T22:26:46.048Z,15.43
2023-05-25T22:27:45.969Z,15.35
2023-05-25T22:28:45.899Z,15.34
2023-05-25T22:29:45.820Z,15.39
2023-05-25T22:30:45.826Z,15.38
2023-05-25T22:31:45.665Z,15.33
2023-05-25T22:32:45.643Z,15.24
2023-05-25T22:33:45.507Z,15.24
2023-05-25T22:34:45.436Z,15.24
2023-05-25T22:35:45.601Z,15.21
2023-05-25T22:36:45.274Z,15.15
2023-05-25T22:37:45.200Z,15.15
2023-05-25T22:38:45.116Z,15.16
2023-05-25T22:39:45.045Z,15.15
2023-05-25T22:40:44.967Z,15.10
2023-05-25T22:41:44.919Z,15.02
2023-05-25T22:42:44.811Z,15.05
2023-05-25T22:43:44.729Z,14.94
2023-05-25T22:44:44.661Z,14.94
2023-05-25T22:45:44.830Z,14.95
2023-05-25T22:46:44.557Z,14.94
2023-05-25T22:47:44.540Z,14.94
2023-05-25T22:48:44.346Z,14.87
2023-05-25T22:49:44.500Z,14.95
2023-05-25T22:50:44.191Z,14.85
2023-05-25T22:51:44.108Z,14.90
2023-05-25T22:52:44.035Z,14.85
2023-05-25T22:53:43.954Z,14.90
2023-05-25T22:54:43.883Z,14.83
2023-05-25T22:55:46.548Z,14.83
2023-05-25T22:56:43.718Z,14.84
2023-05-25T22:57:43.643Z,14.83
2023-05-25T22:58:43.575Z,14.75
2023-05-25T22:59:43.517Z,14.69
2023-05-25T23:00:43.422Z,14.68
2023-05-25T23:01:43.360Z,14.69
2023-05-25T23:02:43.314Z,14.75
2023-05-25T23:03:43.234Z,14.69
2023-05-25T23:04:43.106Z,14.65
2023-05-25T23:05:43.030Z,14.61
2023-05-25T23:06:42.946Z,14.57
2023-05-25T23:07:42.864Z,14.52
2023-05-25T23:08:42.795Z,14.46
2023-05-25T23:09:42.711Z,14.38
2023-05-25T23:10:42.633Z,14.38
2023-05-25T23:11:42.561Z,14.32
2023-05-25T23:12:42.481Z,14.35
2023-05-25T23:13:42.395Z,14.34
2023-05-25T23:14:42.324Z,14.32
2023-05-25T23:15:42.242Z,14.31
2023-05-25T23:16:42.241Z,14.36
2023-05-25T23:17:42.112Z,14.35
2023-05-25T23:18:42.021Z,14.39
2023-05-25T23:19:41.933Z,14.39
2023-05-25T23:20:41.980Z,14.38
2023-05-25T23:21:41.776Z,14.38
2023-05-25T23:22:41.697Z,14.34
2023-05-25T23:23:41.623Z,14.46
2023-05-25T23:24:41.541Z,14.39
2023-05-25T23:25:41.461Z,14.46
2023-05-25T23:26:41.389Z,14.36
2023-05-25T23:27:41.304Z,14.46
2023-05-25T23:28:41.261Z,14.34
2023-05-25T23:29:41.153Z,14.35
2023-05-25T23:30:41.074Z,14.38
2023-05-25T23:31:41.057Z,14.39
2023-05-25T23:32:40.984Z,14.31
2023-05-25T23:33:40.836Z,14.47
2023-05-25T23:34:40.768Z,14.44
2023-05-25T23:35:40.692Z,14.36
2023-05-25T23:36:40.622Z,14.41
2023-05-25T23:37:40.528Z,14.34
2023-05-25T23:38:40.458Z,14.28
2023-05-25T23:39:40.373Z,14.24
2023-05-25T23:40:40.285Z,14.28
2023-05-25T23:41:40.208Z,14.14
2023-05-25T23:42:40.140Z,14.23
2023-05-25T23:43:40.066Z,14.13
2023-05-25T23:44:39.988Z,14.14
2023-05-25T23:45:39.926Z,14.09
2023-05-25T23:46:39.855Z,14.13
2023-05-25T23:47:39.782Z,14.07
2023-05-25T23:48:39.665Z,14.21
2023-05-25T23:49:39.588Z,14.19
2023-05-25T23:50:39.515Z,14.19
2023-05-25T23:51:39.429Z,14.14
2023-05-25T23:52:39.352Z,14.21
2023-05-25T23:53:39.289Z,14.21
2023-05-25T23:54:39.201Z,14.29
2023-05-25T23:55:39.122Z,14.19
2023-05-25T23:56:39.049Z,14.11
2023-05-25T23:57:38.979Z,14.03
2023-05-25T23:58:38.882Z,14.16
2023-05-25T23:59:38.816Z,14.13
